sensor_id;sensor_type;location;lat;lon;timestamp;pressure;altitude;pressure_sealevel;temperature;humidity
6565;BME280;3316;44.118;27.258;2022-08-04T00:04:44;101139.28;;;23.23;100.00
6565;BME280;3316;44.118;27.258;2022-08-04T00:07:19;101129.66;;;23.19;100.00
6565;BME280;3316;44.118;27.258;2022-08-04T00:10:21;101119.00;;;23.17;100.00
6565;BME280;3316;44.118;27.258;2022-08-04T00:12:42;101119.00;;;23.17;100.00
6565;BME280;3316;44.118;27.258;2022-08-04T00:15:10;101122.53;;;23.18;100.00
6565;BME280;3316;44.118;27.258;2022-08-04T00:17:40;101114.03;;;23.10;100.00
6565;BME280;3316;44.118;27.258;2022-08-04T00:20:09;101126.16;;;23.01;100.00
6565;BME280;3316;44.118;27.258;2022-08-04T00:22:38;101127.25;;;22.97;100.00
6565;BME280;3316;44.118;27.258;2022-08-04T00:25:04;101124.72;;;22.94;100.00
6565;BME280;3316;44.118;27.258;2022-08-04T00:27:31;101126.09;;;22.85;100.00
6565;BME280;3316;44.118;27.258;2022-08-04T00:29:58;101130.50;;;22.86;100.00
6565;BME280;3316;44.118;27.258;2022-08-04T00:32:26;101134.28;;;22.99;100.00
6565;BME280;3316;44.118;27.258;2022-08-04T00:34:53;101124.81;;;22.92;100.00
6565;BME280;3316;44.118;27.258;2022-08-04T00:37:23;101133.81;;;22.91;100.00
6565;BME280;3316;44.118;27.258;2022-08-04T00:39:50;101106.16;;;22.74;100.00
6565;BME280;3316;44.118;27.258;2022-08-04T00:54:02;101133.13;;;22.71;100.00
6565;BME280;3316;44.118;27.258;2022-08-04T01:01:58;101138.47;;;22.88;100.00
6565;BME280;3316;44.118;27.258;2022-08-04T01:04:46;101132.66;;;22.80;100.00
6565;BME280;3316;44.118;27.258;2022-08-04T01:10:17;101141.09;;;22.72;100.00
6565;BME280;3316;44.118;27.258;2022-08-04T01:13:35;101136.13;;;22.82;100.00
6565;BME280;3316;44.118;27.258;2022-08-04T01:16:01;101137.28;;;22.76;100.00
6565;BME280;3316;44.118;27.258;2022-08-04T01:22:11;101136.59;;;22.73;100.00
6565;BME280;3316;44.118;27.258;2022-08-04T01:29:26;101134.31;;;22.65;100.00
6565;BME280;3316;44.118;27.258;2022-08-04T01:34:50;101143.63;;;22.75;100.00
6565;BME280;3316;44.118;27.258;2022-08-04T01:37:20;101141.72;;;22.77;100.00
6565;BME280;3316;44.118;27.258;2022-08-04T01:40:07;101141.63;;;22.79;100.00
6565;BME280;3316;44.118;27.258;2022-08-04T01:42:35;101136.28;;;22.79;100.00
6565;BME280;3316;44.118;27.258;2022-08-04T01:45:11;101122.66;;;22.66;100.00
6565;BME280;3316;44.118;27.258;2022-08-04T01:47:52;101128.47;;;22.74;100.00
6565;BME280;3316;44.118;27.258;2022-08-04T01:50:19;101118.91;;;22.69;100.00
6565;BME280;3316;44.118;27.258;2022-08-04T01:52:45;101129.34;;;22.75;100.00
6565;BME280;3316;44.118;27.258;2022-08-04T01:55:13;101131.88;;;22.78;100.00
6565;BME280;3316;44.118;27.258;2022-08-04T01:57:44;101122.72;;;22.65;100.00
6565;BME280;3316;44.118;27.258;2022-08-04T02:00:23;101084.44;;;22.44;100.00
6565;BME280;3316;44.118;27.258;2022-08-04T02:02:51;101128.53;;;22.73;100.00
6565;BME280;3316;44.118;27.258;2022-08-04T02:05:19;101127.53;;;22.75;100.00
6565;BME280;3316;44.118;27.258;2022-08-04T02:08:00;101136.44;;;22.76;100.00
6565;BME280;3316;44.118;27.258;2022-08-04T02:13:26;101134.94;;;22.70;100.00
6565;BME280;3316;44.118;27.258;2022-08-04T02:16:29;101108.25;;;22.50;100.00
6565;BME280;3316;44.118;27.258;2022-08-04T02:19:01;101128.38;;;22.59;100.00
6565;BME280;3316;44.118;27.258;2022-08-04T02:21:31;101118.28;;;22.47;100.00
6565;BME280;3316;44.118;27.258;2022-08-04T02:24:07;101118.75;;;22.38;100.00
6565;BME280;3316;44.118;27.258;2022-08-04T02:26:34;101124.19;;;22.36;100.00
6565;BME280;3316;44.118;27.258;2022-08-04T02:29:16;101140.19;;;22.38;100.00
6565;BME280;3316;44.118;27.258;2022-08-04T02:31:47;101133.50;;;22.29;100.00
6565;BME280;3316;44.118;27.258;2022-08-04T02:34:46;101135.31;;;22.29;100.00
6565;BME280;3316;44.118;27.258;2022-08-04T02:37:16;101133.94;;;22.37;100.00
6565;BME280;3316;44.118;27.258;2022-08-04T02:39:43;101126.56;;;22.42;100.00
6565;BME280;3316;44.118;27.258;2022-08-04T02:42:10;101130.44;;;22.37;100.00
6565;BME280;3316;44.118;27.258;2022-08-04T02:44:38;101129.16;;;22.27;100.00
6565;BME280;3316;44.118;27.258;2022-08-04T02:47:04;101134.44;;;22.28;100.00
6565;BME280;3316;44.118;27.258;2022-08-04T02:49:35;101135.00;;;22.35;100.00
6565;BME280;3316;44.118;27.258;2022-08-04T02:52:01;101130.09;;;22.26;100.00
6565;BME280;3316;44.118;27.258;2022-08-04T02:54:32;101139.09;;;22.25;100.00
6565;BME280;3316;44.118;27.258;2022-08-04T02:57:00;101141.47;;;22.31;100.00
6565;BME280;3316;44.118;27.258;2022-08-04T02:59:28;101141.69;;;22.26;100.00
6565;BME280;3316;44.118;27.258;2022-08-04T03:01:55;101138.13;;;22.26;100.00
6565;BME280;3316;44.118;27.258;2022-08-04T03:16:08;101139.56;;;22.16;100.00
6565;BME280;3316;44.118;27.258;2022-08-04T03:47:08;101145.00;;;25.15;100.00
6565;BME280;3316;44.118;27.258;2022-08-04T03:53:27;101144.84;;;25.87;100.00
6565;BME280;3316;44.118;27.258;2022-08-04T04:15:58;101141.69;;;28.33;92.71
6565;BME280;3316;44.118;27.258;2022-08-04T04:27:12;101164.03;;;29.61;83.38
6565;BME280;3316;44.118;27.258;2022-08-04T04:36:02;101164.91;;;30.38;82.32
6565;BME280;3316;44.118;27.258;2022-08-04T04:41:27;101167.84;;;30.98;78.93
6565;BME280;3316;44.118;27.258;2022-08-04T04:49:13;101159.09;;;31.25;75.10
6565;BME280;3316;44.118;27.258;2022-08-04T04:51:46;101187.06;;;31.57;74.21
6565;BME280;3316;44.118;27.258;2022-08-04T04:57:16;101186.34;;;31.85;68.14
6565;BME280;3316;44.118;27.258;2022-08-04T05:00:04;101197.00;;;31.98;64.58
6565;BME280;3316;44.118;27.258;2022-08-04T05:08:04;101185.78;;;32.50;59.99
6565;BME280;3316;44.118;27.258;2022-08-04T05:15:43;101203.91;;;33.45;55.34
6565;BME280;3316;44.118;27.258;2022-08-04T05:18:17;101201.47;;;33.42;54.77
6565;BME280;3316;44.118;27.258;2022-08-04T05:20:47;101207.44;;;33.65;52.84
6565;BME280;3316;44.118;27.258;2022-08-04T05:23:18;101210.22;;;33.82;51.19
6565;BME280;3316;44.118;27.258;2022-08-04T05:26:02;101207.59;;;34.18;50.69
6565;BME280;3316;44.118;27.258;2022-08-04T05:28:37;101215.53;;;34.38;50.03
6565;BME280;3316;44.118;27.258;2022-08-04T05:31:12;101217.69;;;34.17;49.98
6565;BME280;3316;44.118;27.258;2022-08-04T05:33:42;101217.06;;;34.50;49.36
6565;BME280;3316;44.118;27.258;2022-08-04T05:36:16;101220.47;;;34.35;49.06
6565;BME280;3316;44.118;27.258;2022-08-04T05:38:43;101203.47;;;33.40;52.58
6565;BME280;3316;44.118;27.258;2022-08-04T05:41:10;101217.03;;;33.96;51.16
6565;BME280;3316;44.118;27.258;2022-08-04T05:43:38;101216.63;;;34.00;51.11
6565;BME280;3316;44.118;27.258;2022-08-04T05:46:07;101217.94;;;33.60;52.34
6565;BME280;3316;44.118;27.258;2022-08-04T05:48:34;101208.25;;;32.42;56.84
6565;BME280;3316;44.118;27.258;2022-08-04T05:51:02;101220.84;;;31.54;61.93
6565;BME280;3316;44.118;27.258;2022-08-04T05:53:29;101212.69;;;31.13;66.64
6565;BME280;3316;44.118;27.258;2022-08-04T05:55:55;101203.19;;;31.19;66.63
6565;BME280;3316;44.118;27.258;2022-08-04T05:58:21;101218.41;;;31.10;66.42
6565;BME280;3316;44.118;27.258;2022-08-04T06:00:49;101208.00;;;31.15;66.63
6565;BME280;3316;44.118;27.258;2022-08-04T06:03:18;101213.66;;;30.39;70.52
6565;BME280;3316;44.118;27.258;2022-08-04T06:05:45;101212.50;;;29.99;70.84
6565;BME280;3316;44.118;27.258;2022-08-04T06:08:11;101195.56;;;29.51;73.63
6565;BME280;3316;44.118;27.258;2022-08-04T06:10:37;101205.19;;;29.33;76.13
6565;BME280;3316;44.118;27.258;2022-08-04T06:13:10;101196.16;;;28.52;79.71
6565;BME280;3316;44.118;27.258;2022-08-04T06:15:39;101192.47;;;28.53;81.63
6565;BME280;3316;44.118;27.258;2022-08-04T06:18:09;101188.66;;;28.79;81.93
6565;BME280;3316;44.118;27.258;2022-08-04T06:20:37;101189.66;;;28.78;80.95
6565;BME280;3316;44.118;27.258;2022-08-04T06:23:15;101203.56;;;28.85;82.10
6565;BME280;3316;44.118;27.258;2022-08-04T06:25:50;101197.91;;;28.53;83.34
6565;BME280;3316;44.118;27.258;2022-08-04T06:28:18;101201.41;;;28.66;83.76
6565;BME280;3316;44.118;27.258;2022-08-04T06:30:45;101195.22;;;28.99;82.25
6565;BME280;3316;44.118;27.258;2022-08-04T06:33:15;101199.53;;;29.69;79.66
6565;BME280;3316;44.118;27.258;2022-08-04T06:36:02;101185.63;;;29.85;76.46
6565;BME280;3316;44.118;27.258;2022-08-04T06:38:30;101199.34;;;30.37;75.26
6565;BME280;3316;44.118;27.258;2022-08-04T06:40:56;101186.97;;;30.02;75.64
6565;BME280;3316;44.118;27.258;2022-08-04T06:43:25;101191.38;;;29.47;79.50
6565;BME280;3316;44.118;27.258;2022-08-04T06:45:52;101172.28;;;29.27;80.53
6565;BME280;3316;44.118;27.258;2022-08-04T06:48:19;101187.69;;;29.48;81.50
6565;BME280;3316;44.118;27.258;2022-08-04T06:50:49;101186.31;;;29.65;80.96
6565;BME280;3316;44.118;27.258;2022-08-04T06:53:16;101176.00;;;29.37;81.42
6565;BME280;3316;44.118;27.258;2022-08-04T06:55:44;101188.41;;;29.28;83.07
6565;BME280;3316;44.118;27.258;2022-08-04T06:58:11;101184.47;;;29.65;81.74
6565;BME280;3316;44.118;27.258;2022-08-04T07:00:38;101183.88;;;29.51;82.12
6565;BME280;3316;44.118;27.258;2022-08-04T07:03:05;101182.16;;;29.83;79.88
6565;BME280;3316;44.118;27.258;2022-08-04T07:05:32;101168.84;;;29.80;79.38
6565;BME280;3316;44.118;27.258;2022-08-04T07:07:58;101191.50;;;30.01;79.87
6565;BME280;3316;44.118;27.258;2022-08-04T07:10:26;101189.03;;;30.09;78.02
6565;BME280;3316;44.118;27.258;2022-08-04T07:12:52;101180.22;;;30.39;76.16
6565;BME280;3316;44.118;27.258;2022-08-04T07:15:19;101186.56;;;30.49;77.27
6565;BME280;3316;44.118;27.258;2022-08-04T07:17:46;101167.84;;;30.66;75.43
6565;BME280;3316;44.118;27.258;2022-08-04T07:20:11;101184.34;;;30.54;75.34
6565;BME280;3316;44.118;27.258;2022-08-04T07:22:39;101185.53;;;30.61;74.93
6565;BME280;3316;44.118;27.258;2022-08-04T07:25:09;101163.06;;;30.38;77.38
6565;BME280;3316;44.118;27.258;2022-08-04T07:27:35;101180.97;;;30.61;76.55
6565;BME280;3316;44.118;27.258;2022-08-04T07:30:02;101159.19;;;30.72;75.65
6565;BME280;3316;44.118;27.258;2022-08-04T07:32:31;101145.25;;;31.28;73.30
6565;BME280;3316;44.118;27.258;2022-08-04T07:34:57;101148.84;;;31.28;73.11
6565;BME280;3316;44.118;27.258;2022-08-04T07:37:23;101169.13;;;31.75;70.70
6565;BME280;3316;44.118;27.258;2022-08-04T07:39:49;101164.06;;;30.90;73.19
6565;BME280;3316;44.118;27.258;2022-08-04T07:42:17;101171.88;;;31.04;74.35
6565;BME280;3316;44.118;27.258;2022-08-04T07:44:44;101153.31;;;30.88;74.98
6565;BME280;3316;44.118;27.258;2022-08-04T07:47:10;101165.44;;;31.05;71.39
6565;BME280;3316;44.118;27.258;2022-08-04T07:49:36;101160.31;;;31.11;73.40
6565;BME280;3316;44.118;27.258;2022-08-04T07:52:02;101159.00;;;31.56;72.22
6565;BME280;3316;44.118;27.258;2022-08-04T07:54:28;101160.66;;;32.27;68.08
6565;BME280;3316;44.118;27.258;2022-08-04T07:56:54;101159.69;;;32.57;63.97
6565;BME280;3316;44.118;27.258;2022-08-04T07:59:20;101138.63;;;32.50;64.83
6565;BME280;3316;44.118;27.258;2022-08-04T08:01:46;101159.09;;;32.73;62.72
6565;BME280;3316;44.118;27.258;2022-08-04T08:04:12;101175.09;;;31.69;67.18
6565;BME280;3316;44.118;27.258;2022-08-04T08:06:39;101169.53;;;32.10;67.08
6565;BME280;3316;44.118;27.258;2022-08-04T08:09:15;101164.31;;;31.98;66.98
6565;BME280;3316;44.118;27.258;2022-08-04T08:11:43;101175.25;;;32.17;66.27
6565;BME280;3316;44.118;27.258;2022-08-04T08:14:09;101159.53;;;31.90;65.88
6565;BME280;3316;44.118;27.258;2022-08-04T08:16:35;101147.59;;;32.12;63.64
6565;BME280;3316;44.118;27.258;2022-08-04T08:19:02;101172.97;;;32.22;65.16
6565;BME280;3316;44.118;27.258;2022-08-04T08:21:28;101163.97;;;32.60;64.67
6565;BME280;3316;44.118;27.258;2022-08-04T08:23:54;101175.84;;;32.30;65.74
6565;BME280;3316;44.118;27.258;2022-08-04T08:26:20;101154.47;;;32.16;66.13
6565;BME280;3316;44.118;27.258;2022-08-04T08:28:46;101159.16;;;31.04;73.00
6565;BME280;3316;44.118;27.258;2022-08-04T08:31:12;101170.81;;;31.16;73.85
6565;BME280;3316;44.118;27.258;2022-08-04T08:33:37;101165.69;;;31.02;72.82
6565;BME280;3316;44.118;27.258;2022-08-04T08:38:54;101137.78;;;31.90;68.31
6565;BME280;3316;44.118;27.258;2022-08-04T08:45:03;101167.06;;;32.07;65.12
6565;BME280;3316;44.118;27.258;2022-08-04T08:50:09;101172.72;;;31.85;64.45
6565;BME280;3316;44.118;27.258;2022-08-04T08:58:18;101165.41;;;32.54;62.95
6565;BME280;3316;44.118;27.258;2022-08-04T09:17:32;101156.56;;;31.53;65.83
6565;BME280;3316;44.118;27.258;2022-08-04T09:20:09;101147.22;;;31.86;64.86
6565;BME280;3316;44.118;27.258;2022-08-04T09:22:50;101150.34;;;32.60;59.60
6565;BME280;3316;44.118;27.258;2022-08-04T09:25:38;101143.72;;;32.14;59.63
6565;BME280;3316;44.118;27.258;2022-08-04T09:28:26;101133.16;;;32.50;60.64
6565;BME280;3316;44.118;27.258;2022-08-04T09:31:08;101144.44;;;33.12;57.02
6565;BME280;3316;44.118;27.258;2022-08-04T09:36:09;101143.72;;;32.81;56.69
6565;BME280;3316;44.118;27.258;2022-08-04T09:39:03;101149.59;;;33.05;57.14
6565;BME280;3316;44.118;27.258;2022-08-04T09:41:41;101137.03;;;33.68;54.32
6565;BME280;3316;44.118;27.258;2022-08-04T09:47:23;101150.56;;;33.87;52.24
6565;BME280;3316;44.118;27.258;2022-08-04T10:01:22;101135.72;;;32.32;57.35
6565;BME280;3316;44.118;27.258;2022-08-04T10:03:51;101135.72;;;32.61;57.54
6565;BME280;3316;44.118;27.258;2022-08-04T10:19:58;101098.53;;;33.35;49.25
6565;BME280;3316;44.118;27.258;2022-08-04T10:22:35;101132.38;;;33.05;53.58
6565;BME280;3316;44.118;27.258;2022-08-04T10:27:44;101122.53;;;33.68;52.90
6565;BME280;3316;44.118;27.258;2022-08-04T10:30:11;101125.81;;;34.34;49.52
6565;BME280;3316;44.118;27.258;2022-08-04T10:32:44;101121.38;;;34.33;48.40
6565;BME280;3316;44.118;27.258;2022-08-04T10:35:13;101109.59;;;34.15;47.29
6565;BME280;3316;44.118;27.258;2022-08-04T10:37:41;101119.44;;;33.53;50.19
6565;BME280;3316;44.118;27.258;2022-08-04T10:40:11;101123.38;;;32.76;53.48
6565;BME280;3316;44.118;27.258;2022-08-04T10:45:45;101124.22;;;32.86;51.15
6565;BME280;3316;44.118;27.258;2022-08-04T10:51:09;101117.91;;;32.85;50.91
6565;BME280;3316;44.118;27.258;2022-08-04T10:53:38;101068.38;;;32.99;49.73
6565;BME280;3316;44.118;27.258;2022-08-04T10:56:25;101107.09;;;33.40;49.13
6565;BME280;3316;44.118;27.258;2022-08-04T10:58:58;101115.56;;;33.46;50.04
6565;BME280;3316;44.118;27.258;2022-08-04T11:01:30;101103.50;;;34.03;48.72
6565;BME280;3316;44.118;27.258;2022-08-04T11:04:09;101118.34;;;34.53;46.69
6565;BME280;3316;44.118;27.258;2022-08-04T11:06:36;101104.75;;;35.05;45.96
6565;BME280;3316;44.118;27.258;2022-08-04T11:09:03;101111.41;;;35.36;43.70
6565;BME280;3316;44.118;27.258;2022-08-04T11:11:38;101117.91;;;35.09;45.24
6565;BME280;3316;44.118;27.258;2022-08-04T11:14:11;101103.06;;;34.25;45.21
6565;BME280;3316;44.118;27.258;2022-08-04T11:19:21;101110.38;;;34.25;47.39
6565;BME280;3316;44.118;27.258;2022-08-04T11:22:05;101081.94;;;34.18;47.74
6565;BME280;3316;44.118;27.258;2022-08-04T11:24:53;101104.50;;;34.37;47.53
6565;BME280;3316;44.118;27.258;2022-08-04T11:27:39;101089.16;;;34.54;46.96
6565;BME280;3316;44.118;27.258;2022-08-04T11:30:09;101068.69;;;34.40;46.72
6565;BME280;3316;44.118;27.258;2022-08-04T11:32:46;101096.22;;;34.29;46.33
6565;BME280;3316;44.118;27.258;2022-08-04T11:40:41;101078.69;;;32.50;53.77
6565;BME280;3316;44.118;27.258;2022-08-04T11:43:12;101088.16;;;33.11;52.42
6565;BME280;3316;44.118;27.258;2022-08-04T11:45:53;101083.19;;;32.78;51.79
6565;BME280;3316;44.118;27.258;2022-08-04T11:48:26;101081.69;;;33.12;50.93
6565;BME280;3316;44.118;27.258;2022-08-04T11:50:54;101082.91;;;33.27;48.97
6565;BME280;3316;44.118;27.258;2022-08-04T11:53:25;101077.50;;;33.54;47.87
6565;BME280;3316;44.118;27.258;2022-08-04T11:55:53;101074.63;;;33.56;47.70
6565;BME280;3316;44.118;27.258;2022-08-04T11:58:22;101063.06;;;33.35;48.21
6565;BME280;3316;44.118;27.258;2022-08-04T12:01:01;101069.16;;;34.00;48.09
6565;BME280;3316;44.118;27.258;2022-08-04T12:06:55;101078.78;;;33.23;51.73
6565;BME280;3316;44.118;27.258;2022-08-04T12:09:48;101079.06;;;33.20;51.59
6565;BME280;3316;44.118;27.258;2022-08-04T12:12:43;101073.53;;;33.12;50.90
6565;BME280;3316;44.118;27.258;2022-08-04T12:15:28;101065.81;;;32.98;50.10
6565;BME280;3316;44.118;27.258;2022-08-04T12:18:06;101058.53;;;32.70;51.70
6565;BME280;3316;44.118;27.258;2022-08-04T12:20:41;101062.50;;;33.04;49.17
6565;BME280;3316;44.118;27.258;2022-08-04T12:23:20;101054.19;;;33.60;47.99
6565;BME280;3316;44.118;27.258;2022-08-04T12:25:49;101042.44;;;33.94;45.44
6565;BME280;3316;44.118;27.258;2022-08-04T12:28:27;101067.53;;;34.25;45.58
6565;BME280;3316;44.118;27.258;2022-08-04T12:30:59;101067.06;;;34.73;45.22
6565;BME280;3316;44.118;27.258;2022-08-04T12:33:33;101048.47;;;34.16;46.28
6565;BME280;3316;44.118;27.258;2022-08-04T12:36:07;101039.13;;;34.18;45.41
6565;BME280;3316;44.118;27.258;2022-08-04T12:38:46;101051.13;;;33.36;47.76
6565;BME280;3316;44.118;27.258;2022-08-04T12:41:15;101036.25;;;33.57;47.96
6565;BME280;3316;44.118;27.258;2022-08-04T12:43:43;101045.03;;;34.31;46.71
6565;BME280;3316;44.118;27.258;2022-08-04T12:46:23;101049.34;;;33.98;44.84
6565;BME280;3316;44.118;27.258;2022-08-04T12:48:49;101045.88;;;33.96;44.68
6565;BME280;3316;44.118;27.258;2022-08-04T12:51:18;101033.81;;;34.17;43.90
6565;BME280;3316;44.118;27.258;2022-08-04T12:53:46;101027.63;;;33.97;44.29
6565;BME280;3316;44.118;27.258;2022-08-04T12:56:13;101036.75;;;33.70;44.79
6565;BME280;3316;44.118;27.258;2022-08-04T12:58:42;101037.19;;;33.48;47.23
6565;BME280;3316;44.118;27.258;2022-08-04T13:01:11;101038.47;;;33.89;45.45
6565;BME280;3316;44.118;27.258;2022-08-04T13:03:50;101011.59;;;34.37;43.91
6565;BME280;3316;44.118;27.258;2022-08-04T13:06:23;101029.03;;;34.79;41.65
6565;BME280;3316;44.118;27.258;2022-08-04T13:08:49;101033.16;;;34.58;42.19
6565;BME280;3316;44.118;27.258;2022-08-04T13:11:14;101030.72;;;34.55;41.87
6565;BME280;3316;44.118;27.258;2022-08-04T13:13:43;101021.13;;;34.33;42.10
6565;BME280;3316;44.118;27.258;2022-08-04T13:16:10;101017.69;;;33.96;43.14
6565;BME280;3316;44.118;27.258;2022-08-04T13:18:39;101020.22;;;33.72;43.99
6565;BME280;3316;44.118;27.258;2022-08-04T13:21:18;101012.03;;;33.89;43.78
6565;BME280;3316;44.118;27.258;2022-08-04T13:23:47;101020.16;;;34.17;43.36
6565;BME280;3316;44.118;27.258;2022-08-04T13:26:15;101020.06;;;34.08;42.95
6565;BME280;3316;44.118;27.258;2022-08-04T13:28:47;101016.16;;;34.29;41.75
6565;BME280;3316;44.118;27.258;2022-08-04T13:31:18;101014.75;;;33.89;42.67
6565;BME280;3316;44.118;27.258;2022-08-04T13:33:46;101010.69;;;33.76;41.27
6565;BME280;3316;44.118;27.258;2022-08-04T13:36:13;101008.25;;;33.55;41.35
6565;BME280;3316;44.118;27.258;2022-08-04T13:38:49;101011.00;;;33.46;42.79
6565;BME280;3316;44.118;27.258;2022-08-04T13:41:16;100984.22;;;33.41;42.96
6565;BME280;3316;44.118;27.258;2022-08-04T13:43:48;101007.00;;;33.67;43.57
6565;BME280;3316;44.118;27.258;2022-08-04T13:46:19;101012.00;;;33.54;43.21
6565;BME280;3316;44.118;27.258;2022-08-04T13:48:46;101014.56;;;33.56;41.65
6565;BME280;3316;44.118;27.258;2022-08-04T13:51:16;101013.88;;;33.71;42.54
6565;BME280;3316;44.118;27.258;2022-08-04T13:53:42;101004.75;;;33.80;42.13
6565;BME280;3316;44.118;27.258;2022-08-04T13:56:09;100997.00;;;34.03;40.76
6565;BME280;3316;44.118;27.258;2022-08-04T13:58:44;100997.56;;;34.32;40.69
6565;BME280;3316;44.118;27.258;2022-08-04T14:01:25;101002.75;;;34.43;41.34
6565;BME280;3316;44.118;27.258;2022-08-04T14:04:11;101009.59;;;34.65;40.17
6565;BME280;3316;44.118;27.258;2022-08-04T14:09:19;101001.41;;;34.04;40.56
6565;BME280;3316;44.118;27.258;2022-08-04T14:11:48;100997.13;;;33.66;41.39
6565;BME280;3316;44.118;27.258;2022-08-04T14:14:31;100988.06;;;33.48;41.49
6565;BME280;3316;44.118;27.258;2022-08-04T14:17:10;100986.22;;;34.01;40.77
6565;BME280;3316;44.118;27.258;2022-08-04T14:19:57;101000.78;;;34.10;40.00
6565;BME280;3316;44.118;27.258;2022-08-04T14:24:59;101003.50;;;33.30;42.36
6565;BME280;3316;44.118;27.258;2022-08-04T14:27:27;100998.75;;;33.59;42.31
6565;BME280;3316;44.118;27.258;2022-08-04T14:29:53;100994.00;;;33.61;43.08
6565;BME280;3316;44.118;27.258;2022-08-04T14:32:18;100975.38;;;33.57;41.48
6565;BME280;3316;44.118;27.258;2022-08-04T14:34:44;100999.84;;;33.66;40.48
6565;BME280;3316;44.118;27.258;2022-08-04T14:37:12;100993.22;;;34.04;39.92
6565;BME280;3316;44.118;27.258;2022-08-04T14:39:41;100999.69;;;34.21;38.67
6565;BME280;3316;44.118;27.258;2022-08-04T14:42:07;100982.63;;;34.19;39.24
6565;BME280;3316;44.118;27.258;2022-08-04T14:45:06;100997.44;;;34.16;39.86
6565;BME280;3316;44.118;27.258;2022-08-04T14:47:58;100991.19;;;34.24;40.07
6565;BME280;3316;44.118;27.258;2022-08-04T14:50:43;100993.13;;;34.13;39.83
6565;BME280;3316;44.118;27.258;2022-08-04T14:53:14;100992.56;;;33.57;39.68
6565;BME280;3316;44.118;27.258;2022-08-04T14:55:54;100987.06;;;33.40;39.25
6565;BME280;3316;44.118;27.258;2022-08-04T14:58:31;100985.84;;;33.07;40.54
6565;BME280;3316;44.118;27.258;2022-08-04T15:01:02;100978.34;;;33.09;41.59
6565;BME280;3316;44.118;27.258;2022-08-04T15:03:30;100947.00;;;33.40;42.17
6565;BME280;3316;44.118;27.258;2022-08-04T15:05:57;100979.56;;;33.69;42.03
6565;BME280;3316;44.118;27.258;2022-08-04T15:08:24;100976.06;;;33.59;42.59
6565;BME280;3316;44.118;27.258;2022-08-04T15:10:49;100975.50;;;33.55;42.95
6565;BME280;3316;44.118;27.258;2022-08-04T15:13:15;100973.56;;;33.83;42.29
6565;BME280;3316;44.118;27.258;2022-08-04T15:15:41;100973.56;;;33.83;42.25
6565;BME280;3316;44.118;27.258;2022-08-04T15:18:11;100968.72;;;33.77;42.10
6565;BME280;3316;44.118;27.258;2022-08-04T15:20:38;100963.66;;;33.64;42.66
6565;BME280;3316;44.118;27.258;2022-08-04T15:23:06;100968.19;;;33.73;42.93
6565;BME280;3316;44.118;27.258;2022-08-04T15:25:38;100979.50;;;33.78;43.45
6565;BME280;3316;44.118;27.258;2022-08-04T15:28:04;100966.00;;;33.59;42.54
6565;BME280;3316;44.118;27.258;2022-08-04T15:30:32;100970.28;;;33.62;43.32
6565;BME280;3316;44.118;27.258;2022-08-04T15:33:00;100972.63;;;33.57;42.75
6565;BME280;3316;44.118;27.258;2022-08-04T15:35:27;100972.59;;;33.39;44.17
6565;BME280;3316;44.118;27.258;2022-08-04T15:45:53;100970.63;;;32.68;45.40
6565;BME280;3316;44.118;27.258;2022-08-04T15:58:51;100950.47;;;32.41;44.84
6565;BME280;3316;44.118;27.258;2022-08-04T16:01:17;100967.44;;;32.16;45.77
6565;BME280;3316;44.118;27.258;2022-08-04T16:03:47;100976.56;;;32.34;46.36
6565;BME280;3316;44.118;27.258;2022-08-04T16:16:28;100968.28;;;31.88;50.23
6565;BME280;3316;44.118;27.258;2022-08-04T16:19:03;100969.00;;;31.90;50.80
6565;BME280;3316;44.118;27.258;2022-08-04T16:21:32;100961.41;;;31.75;49.62
6565;BME280;3316;44.118;27.258;2022-08-04T16:26:51;100968.56;;;31.66;50.03
6565;BME280;3316;44.118;27.258;2022-08-04T16:29:37;100977.44;;;31.68;49.07
6565;BME280;3316;44.118;27.258;2022-08-04T16:37:00;100973.38;;;31.24;51.89
6565;BME280;3316;44.118;27.258;2022-08-04T16:39:27;100963.91;;;31.19;51.89
6565;BME280;3316;44.118;27.258;2022-08-04T16:41:52;100972.97;;;31.38;52.44
6565;BME280;3316;44.118;27.258;2022-08-04T16:44:32;100974.56;;;31.41;53.73
6565;BME280;3316;44.118;27.258;2022-08-04T16:47:01;100969.63;;;31.25;53.79
6565;BME280;3316;44.118;27.258;2022-08-04T16:49:28;100982.09;;;31.28;54.58
6565;BME280;3316;44.118;27.258;2022-08-04T16:52:03;100982.47;;;31.14;56.12
6565;BME280;3316;44.118;27.258;2022-08-04T16:54:32;100983.75;;;31.10;57.61
6565;BME280;3316;44.118;27.258;2022-08-04T16:56:59;100954.44;;;30.73;59.38
6565;BME280;3316;44.118;27.258;2022-08-04T16:59:25;100983.47;;;30.83;61.37
6565;BME280;3316;44.118;27.258;2022-08-04T17:01:52;100979.59;;;30.76;62.59
6565;BME280;3316;44.118;27.258;2022-08-04T17:04:32;100980.94;;;30.60;63.50
6565;BME280;3316;44.118;27.258;2022-08-04T17:07:01;100987.47;;;30.48;63.87
6565;BME280;3316;44.118;27.258;2022-08-04T17:09:28;100965.06;;;30.15;65.55
6565;BME280;3316;44.118;27.258;2022-08-04T17:11:54;100991.78;;;30.30;66.82
6565;BME280;3316;44.118;27.258;2022-08-04T17:14:27;100987.84;;;30.23;67.98
6565;BME280;3316;44.118;27.258;2022-08-04T17:16:55;100969.44;;;30.06;69.46
6565;BME280;3316;44.118;27.258;2022-08-04T17:19:22;100988.31;;;30.08;70.59
6565;BME280;3316;44.118;27.258;2022-08-04T17:21:48;100992.38;;;30.02;71.37
6565;BME280;3316;44.118;27.258;2022-08-04T17:24:15;100989.75;;;29.91;71.53
6565;BME280;3316;44.118;27.258;2022-08-04T17:26:40;100985.94;;;29.82;71.86
6565;BME280;3316;44.118;27.258;2022-08-04T17:29:06;100987.41;;;29.86;71.60
6565;BME280;3316;44.118;27.258;2022-08-04T17:31:34;100987.69;;;29.83;71.79
6565;BME280;3316;44.118;27.258;2022-08-04T17:34:08;100996.22;;;29.68;70.50
6565;BME280;3316;44.118;27.258;2022-08-04T17:36:36;101003.88;;;29.74;70.54
6565;BME280;3316;44.118;27.258;2022-08-04T17:39:10;101006.84;;;29.71;69.75
6565;BME280;3316;44.118;27.258;2022-08-04T17:41:36;100977.28;;;29.57;70.10